sensor_id;sensor_type;location;lat;lon;timestamp;P1;durP1;ratioP1;P2;durP2;ratioP2
8622;SDS011;4349;47.552;8.904;2022-10-16T00:02:17;4.60;;;3.70;;
8622;SDS011;4349;47.552;8.904;2022-10-16T00:04:45;3.57;;;3.47;;
8622;SDS011;4349;47.552;8.904;2022-10-16T00:07:14;4.47;;;3.53;;
8622;SDS011;4349;47.552;8.904;2022-10-16T00:09:42;3.90;;;3.53;;
8622;SDS011;4349;47.552;8.904;2022-10-16T00:12:10;4.03;;;3.00;;
8622;SDS011;4349;47.552;8.904;2022-10-16T00:14:37;3.63;;;3.30;;
8622;SDS011;4349;47.552;8.904;2022-10-16T00:17:07;3.23;;;3.13;;
8622;SDS011;4349;47.552;8.904;2022-10-16T00:19:34;3.20;;;2.97;;
8622;SDS011;4349;47.552;8.904;2022-10-16T00:22:02;3.40;;;3.10;;
8622;SDS011;4349;47.552;8.904;2022-10-16T00:24:31;3.43;;;3.10;;
8622;SDS011;4349;47.552;8.904;2022-10-16T00:26:58;5.60;;;3.30;;
8622;SDS011;4349;47.552;8.904;2022-10-16T00:29:26;3.30;;;3.10;;
8622;SDS011;4349;47.552;8.904;2022-10-16T00:31:54;3.57;;;3.13;;
8622;SDS011;4349;47.552;8.904;2022-10-16T00:34:21;3.33;;;3.10;;
8622;SDS011;4349;47.552;8.904;2022-10-16T00:36:49;4.37;;;3.37;;
8622;SDS011;4349;47.552;8.904;2022-10-16T00:39:16;4.60;;;3.10;;
8622;SDS011;4349;47.552;8.904;2022-10-16T00:41:46;5.23;;;3.40;;
8622;SDS011;4349;47.552;8.904;2022-10-16T00:46:59;3.10;;;2.90;;
8622;SDS011;4349;47.552;8.904;2022-10-16T00:49:27;4.70;;;3.30;;
8622;SDS011;4349;47.552;8.904;2022-10-16T00:51:55;3.93;;;2.80;;
8622;SDS011;4349;47.552;8.904;2022-10-16T00:54:23;3.20;;;3.07;;
8622;SDS011;4349;47.552;8.904;2022-10-16T00:56:53;3.40;;;3.10;;
8622;SDS011;4349;47.552;8.904;2022-10-16T00:59:22;3.47;;;3.17;;
8622;SDS011;4349;47.552;8.904;2022-10-16T01:01:51;3.80;;;2.97;;
8622;SDS011;4349;47.552;8.904;2022-10-16T01:04:19;3.30;;;3.10;;
8622;SDS011;4349;47.552;8.904;2022-10-16T01:06:49;3.57;;;3.37;;
8622;SDS011;4349;47.552;8.904;2022-10-16T01:09:20;3.63;;;3.43;;
8622;SDS011;4349;47.552;8.904;2022-10-16T01:11:53;5.83;;;3.63;;
8622;SDS011;4349;47.552;8.904;2022-10-16T01:14:24;3.60;;;3.40;;
8622;SDS011;4349;47.552;8.904;2022-10-16T01:16:55;3.30;;;3.10;;
8622;SDS011;4349;47.552;8.904;2022-10-16T01:19:26;3.60;;;3.40;;
8622;SDS011;4349;47.552;8.904;2022-10-16T01:21:57;3.93;;;3.60;;
8622;SDS011;4349;47.552;8.904;2022-10-16T01:24:31;3.50;;;3.33;;
8622;SDS011;4349;47.552;8.904;2022-10-16T01:27:11;3.07;;;2.97;;
8622;SDS011;4349;47.552;8.904;2022-10-16T01:29:40;3.17;;;2.97;;
8622;SDS011;4349;47.552;8.904;2022-10-16T01:32:11;3.50;;;3.30;;
8622;SDS011;4349;47.552;8.904;2022-10-16T01:34:42;3.37;;;3.17;;
8622;SDS011;4349;47.552;8.904;2022-10-16T01:37:12;3.53;;;3.23;;
8622;SDS011;4349;47.552;8.904;2022-10-16T01:39:42;3.60;;;3.40;;
8622;SDS011;4349;47.552;8.904;2022-10-16T01:42:14;3.87;;;3.20;;
8622;SDS011;4349;47.552;8.904;2022-10-16T01:44:43;3.27;;;3.17;;
8622;SDS011;4349;47.552;8.904;2022-10-16T01:47:12;4.67;;;4.33;;
8622;SDS011;4349;47.552;8.904;2022-10-16T01:49:41;3.47;;;3.37;;
8622;SDS011;4349;47.552;8.904;2022-10-16T01:52:10;5.23;;;4.93;;
8622;SDS011;4349;47.552;8.904;2022-10-16T01:54:39;4.97;;;4.57;;
8622;SDS011;4349;47.552;8.904;2022-10-16T01:57:08;4.57;;;4.27;;
8622;SDS011;4349;47.552;8.904;2022-10-16T01:59:40;3.87;;;3.60;;
8622;SDS011;4349;47.552;8.904;2022-10-16T02:02:09;3.50;;;3.20;;
8622;SDS011;4349;47.552;8.904;2022-10-16T02:04:38;4.33;;;3.93;;
8622;SDS011;4349;47.552;8.904;2022-10-16T02:07:07;5.93;;;3.80;;
8622;SDS011;4349;47.552;8.904;2022-10-16T02:09:34;4.50;;;4.20;;
8622;SDS011;4349;47.552;8.904;2022-10-16T02:12:03;4.83;;;4.43;;
8622;SDS011;4349;47.552;8.904;2022-10-16T02:14:32;4.87;;;4.43;;
8622;SDS011;4349;47.552;8.904;2022-10-16T02:17:01;4.63;;;4.43;;
8622;SDS011;4349;47.552;8.904;2022-10-16T02:19:28;11.43;;;5.00;;
8622;SDS011;4349;47.552;8.904;2022-10-16T02:21:56;7.63;;;4.33;;
8622;SDS011;4349;47.552;8.904;2022-10-16T02:24:27;4.90;;;4.43;;
8622;SDS011;4349;47.552;8.904;2022-10-16T02:26:57;5.23;;;4.73;;
8622;SDS011;4349;47.552;8.904;2022-10-16T02:29:27;5.33;;;4.77;;
8622;SDS011;4349;47.552;8.904;2022-10-16T02:31:55;5.37;;;5.07;;
8622;SDS011;4349;47.552;8.904;2022-10-16T02:34:25;7.10;;;5.00;;
8622;SDS011;4349;47.552;8.904;2022-10-16T02:36:53;5.20;;;4.90;;
8622;SDS011;4349;47.552;8.904;2022-10-16T02:39:21;4.07;;;3.87;;
8622;SDS011;4349;47.552;8.904;2022-10-16T02:41:49;5.50;;;4.00;;
8622;SDS011;4349;47.552;8.904;2022-10-16T02:44:17;3.77;;;3.67;;
8622;SDS011;4349;47.552;8.904;2022-10-16T02:46:44;3.87;;;3.67;;
8622;SDS011;4349;47.552;8.904;2022-10-16T02:49:12;4.20;;;3.80;;
8622;SDS011;4349;47.552;8.904;2022-10-16T02:51:41;3.97;;;3.60;;
8622;SDS011;4349;47.552;8.904;2022-10-16T02:54:08;3.90;;;3.60;;
8622;SDS011;4349;47.552;8.904;2022-10-16T02:56:36;3.43;;;3.23;;
8622;SDS011;4349;47.552;8.904;2022-10-16T02:59:04;4.80;;;3.33;;
8622;SDS011;4349;47.552;8.904;2022-10-16T03:01:31;3.87;;;3.37;;
8622;SDS011;4349;47.552;8.904;2022-10-16T03:03:59;3.57;;;3.27;;
8622;SDS011;4349;47.552;8.904;2022-10-16T03:06:27;3.47;;;3.27;;
8622;SDS011;4349;47.552;8.904;2022-10-16T03:08:56;4.00;;;3.33;;
8622;SDS011;4349;47.552;8.904;2022-10-16T03:11:23;3.73;;;3.37;;
8622;SDS011;4349;47.552;8.904;2022-10-16T03:13:51;3.30;;;3.10;;
8622;SDS011;4349;47.552;8.904;2022-10-16T03:16:19;3.27;;;3.17;;
8622;SDS011;4349;47.552;8.904;2022-10-16T03:18:47;3.87;;;3.20;;
8622;SDS011;4349;47.552;8.904;2022-10-16T03:21:15;4.23;;;3.50;;
8622;SDS011;4349;47.552;8.904;2022-10-16T03:23:42;3.10;;;2.80;;
8622;SDS011;4349;47.552;8.904;2022-10-16T03:26:11;3.00;;;2.90;;
8622;SDS011;4349;47.552;8.904;2022-10-16T03:28:39;2.93;;;2.77;;
8622;SDS011;4349;47.552;8.904;2022-10-16T03:31:07;3.10;;;3.00;;
8622;SDS011;4349;47.552;8.904;2022-10-16T03:33:34;3.10;;;3.00;;
8622;SDS011;4349;47.552;8.904;2022-10-16T03:36:02;2.80;;;2.70;;
8622;SDS011;4349;47.552;8.904;2022-10-16T03:38:29;8.20;;;3.00;;
8622;SDS011;4349;47.552;8.904;2022-10-16T03:40:57;3.10;;;2.90;;
8622;SDS011;4349;47.552;8.904;2022-10-16T03:43:26;3.00;;;2.90;;
8622;SDS011;4349;47.552;8.904;2022-10-16T03:45:54;2.97;;;2.87;;
8622;SDS011;4349;47.552;8.904;2022-10-16T03:48:21;3.27;;;3.17;;
8622;SDS011;4349;47.552;8.904;2022-10-16T03:50:49;3.10;;;3.00;;
8622;SDS011;4349;47.552;8.904;2022-10-16T03:53:17;3.00;;;2.80;;
8622;SDS011;4349;47.552;8.904;2022-10-16T03:55:45;2.90;;;2.70;;
8622;SDS011;4349;47.552;8.904;2022-10-16T03:58:13;2.90;;;2.70;;
8622;SDS011;4349;47.552;8.904;2022-10-16T04:00:42;5.07;;;3.20;;
8622;SDS011;4349;47.552;8.904;2022-10-16T04:03:10;2.90;;;2.80;;
8622;SDS011;4349;47.552;8.904;2022-10-16T04:05:37;3.03;;;2.63;;
8622;SDS011;4349;47.552;8.904;2022-10-16T04:08:05;3.43;;;3.10;;
8622;SDS011;4349;47.552;8.904;2022-10-16T04:10:33;3.40;;;3.20;;
8622;SDS011;4349;47.552;8.904;2022-10-16T04:13:00;3.00;;;2.90;;
8622;SDS011;4349;47.552;8.904;2022-10-16T04:15:28;2.83;;;2.63;;
8622;SDS011;4349;47.552;8.904;2022-10-16T04:17:57;3.20;;;2.70;;
8622;SDS011;4349;47.552;8.904;2022-10-16T04:20:25;2.77;;;2.67;;
8622;SDS011;4349;47.552;8.904;2022-10-16T04:22:52;2.37;;;2.27;;
8622;SDS011;4349;47.552;8.904;2022-10-16T04:25:20;2.90;;;2.63;;
8622;SDS011;4349;47.552;8.904;2022-10-16T04:27:47;3.00;;;2.80;;
8622;SDS011;4349;47.552;8.904;2022-10-16T04:30:15;3.17;;;2.87;;
8622;SDS011;4349;47.552;8.904;2022-10-16T04:32:43;5.30;;;2.77;;
8622;SDS011;4349;47.552;8.904;2022-10-16T04:35:12;2.83;;;2.70;;
8622;SDS011;4349;47.552;8.904;2022-10-16T04:37:39;2.53;;;2.43;;
8622;SDS011;4349;47.552;8.904;2022-10-16T04:40:07;2.97;;;2.77;;
8622;SDS011;4349;47.552;8.904;2022-10-16T04:42:35;2.90;;;2.70;;
8622;SDS011;4349;47.552;8.904;2022-10-16T04:45:02;3.00;;;2.80;;
8622;SDS011;4349;47.552;8.904;2022-10-16T04:47:30;3.37;;;3.00;;
8622;SDS011;4349;47.552;8.904;2022-10-16T04:49:58;3.53;;;3.30;;
8622;SDS011;4349;47.552;8.904;2022-10-16T04:52:29;3.43;;;2.87;;
8622;SDS011;4349;47.552;8.904;2022-10-16T04:54:57;3.10;;;3.00;;
8622;SDS011;4349;47.552;8.904;2022-10-16T04:57:28;3.00;;;2.90;;
8622;SDS011;4349;47.552;8.904;2022-10-16T04:59:56;3.30;;;3.10;;
8622;SDS011;4349;47.552;8.904;2022-10-16T05:02:24;3.10;;;2.97;;
8622;SDS011;4349;47.552;8.904;2022-10-16T05:04:52;3.03;;;2.93;;
8622;SDS011;4349;47.552;8.904;2022-10-16T05:07:19;3.33;;;2.67;;
8622;SDS011;4349;47.552;8.904;2022-10-16T05:09:48;3.30;;;2.80;;
8622;SDS011;4349;47.552;8.904;2022-10-16T05:12:16;3.07;;;2.77;;
8622;SDS011;4349;47.552;8.904;2022-10-16T05:14:44;2.90;;;2.80;;
8622;SDS011;4349;47.552;8.904;2022-10-16T05:17:11;2.90;;;2.60;;
8622;SDS011;4349;47.552;8.904;2022-10-16T05:19:39;8.33;;;3.10;;
8622;SDS011;4349;47.552;8.904;2022-10-16T05:22:06;4.77;;;2.83;;
8622;SDS011;4349;47.552;8.904;2022-10-16T05:24:34;3.10;;;2.90;;
8622;SDS011;4349;47.552;8.904;2022-10-16T05:27:03;2.80;;;2.60;;
8622;SDS011;4349;47.552;8.904;2022-10-16T05:29:31;3.50;;;2.93;;
8622;SDS011;4349;47.552;8.904;2022-10-16T05:31:58;5.13;;;2.53;;
8622;SDS011;4349;47.552;8.904;2022-10-16T05:34:26;2.50;;;2.40;;
8622;SDS011;4349;47.552;8.904;2022-10-16T05:36:53;3.00;;;2.63;;
8622;SDS011;4349;47.552;8.904;2022-10-16T05:39:21;2.80;;;2.70;;
8622;SDS011;4349;47.552;8.904;2022-10-16T05:41:49;5.07;;;3.10;;
8622;SDS011;4349;47.552;8.904;2022-10-16T05:44:18;5.03;;;3.00;;
8622;SDS011;4349;47.552;8.904;2022-10-16T05:46:46;3.70;;;2.77;;
8622;SDS011;4349;47.552;8.904;2022-10-16T05:49:14;2.90;;;2.70;;
8622;SDS011;4349;47.552;8.904;2022-10-16T05:51:42;3.13;;;2.83;;
8622;SDS011;4349;47.552;8.904;2022-10-16T05:54:09;3.30;;;3.10;;
8622;SDS011;4349;47.552;8.904;2022-10-16T05:56:37;3.13;;;2.93;;
8622;SDS011;4349;47.552;8.904;2022-10-16T05:59:04;2.97;;;2.87;;
8622;SDS011;4349;47.552;8.904;2022-10-16T06:01:33;3.00;;;2.80;;
8622;SDS011;4349;47.552;8.904;2022-10-16T06:04:01;2.80;;;2.60;;
8622;SDS011;4349;47.552;8.904;2022-10-16T06:06:29;2.57;;;2.40;;
8622;SDS011;4349;47.552;8.904;2022-10-16T06:08:57;2.43;;;2.23;;
8622;SDS011;4349;47.552;8.904;2022-10-16T06:11:26;2.83;;;2.30;;
8622;SDS011;4349;47.552;8.904;2022-10-16T06:13:54;5.00;;;2.40;;
8622;SDS011;4349;47.552;8.904;2022-10-16T06:16:23;2.60;;;2.50;;
8622;SDS011;4349;47.552;8.904;2022-10-16T06:18:53;2.80;;;2.60;;
8622;SDS011;4349;47.552;8.904;2022-10-16T06:21:22;2.90;;;2.80;;
8622;SDS011;4349;47.552;8.904;2022-10-16T06:23:51;2.67;;;2.57;;
8622;SDS011;4349;47.552;8.904;2022-10-16T06:26:19;2.70;;;2.60;;
8622;SDS011;4349;47.552;8.904;2022-10-16T06:28:47;3.10;;;3.00;;
8622;SDS011;4349;47.552;8.904;2022-10-16T06:31:15;5.43;;;3.63;;
8622;SDS011;4349;47.552;8.904;2022-10-16T06:33:43;4.67;;;3.50;;
8622;SDS011;4349;47.552;8.904;2022-10-16T06:36:15;4.70;;;3.80;;
8622;SDS011;4349;47.552;8.904;2022-10-16T06:38:43;4.10;;;3.80;;
8622;SDS011;4349;47.552;8.904;2022-10-16T06:41:11;4.13;;;3.70;;
8622;SDS011;4349;47.552;8.904;2022-10-16T06:43:39;4.53;;;4.13;;
8622;SDS011;4349;47.552;8.904;2022-10-16T06:46:08;5.00;;;4.17;;
8622;SDS011;4349;47.552;8.904;2022-10-16T06:48:36;4.90;;;4.20;;
8622;SDS011;4349;47.552;8.904;2022-10-16T06:51:05;4.63;;;4.10;;
8622;SDS011;4349;47.552;8.904;2022-10-16T06:53:36;4.50;;;4.20;;
8622;SDS011;4349;47.552;8.904;2022-10-16T06:56:20;5.43;;;4.93;;
8622;SDS011;4349;47.552;8.904;2022-10-16T06:58:48;4.63;;;4.23;;
8622;SDS011;4349;47.552;8.904;2022-10-16T07:01:17;8.27;;;6.03;;
8622;SDS011;4349;47.552;8.904;2022-10-16T07:03:45;5.77;;;5.27;;
8622;SDS011;4349;47.552;8.904;2022-10-16T07:06:13;7.93;;;5.57;;
8622;SDS011;4349;47.552;8.904;2022-10-16T07:08:43;5.90;;;5.40;;
8622;SDS011;4349;47.552;8.904;2022-10-16T07:11:12;5.40;;;5.00;;
8622;SDS011;4349;47.552;8.904;2022-10-16T07:13:40;7.00;;;4.90;;
8622;SDS011;4349;47.552;8.904;2022-10-16T07:16:09;5.07;;;4.63;;
8622;SDS011;4349;47.552;8.904;2022-10-16T07:18:37;4.23;;;3.77;;
8622;SDS011;4349;47.552;8.904;2022-10-16T07:21:06;4.43;;;4.03;;
8622;SDS011;4349;47.552;8.904;2022-10-16T07:23:34;4.53;;;4.07;;
8622;SDS011;4349;47.552;8.904;2022-10-16T07:26:04;4.00;;;3.80;;
8622;SDS011;4349;47.552;8.904;2022-10-16T07:28:31;5.23;;;4.07;;
8622;SDS011;4349;47.552;8.904;2022-10-16T07:31:02;7.73;;;4.00;;
8622;SDS011;4349;47.552;8.904;2022-10-16T07:33:30;6.20;;;4.57;;
8622;SDS011;4349;47.552;8.904;2022-10-16T07:35:58;4.93;;;4.40;;
8622;SDS011;4349;47.552;8.904;2022-10-16T07:38:26;4.27;;;4.00;;
8622;SDS011;4349;47.552;8.904;2022-10-16T07:40:57;4.60;;;4.30;;
8622;SDS011;4349;47.552;8.904;2022-10-16T07:43:27;5.63;;;4.83;;
8622;SDS011;4349;47.552;8.904;2022-10-16T07:45:54;4.83;;;4.43;;
8622;SDS011;4349;47.552;8.904;2022-10-16T07:48:27;7.30;;;4.97;;
8622;SDS011;4349;47.552;8.904;2022-10-16T07:50:56;5.73;;;5.23;;
8622;SDS011;4349;47.552;8.904;2022-10-16T07:53:24;6.00;;;5.50;;
8622;SDS011;4349;47.552;8.904;2022-10-16T07:55:52;5.10;;;4.70;;
8622;SDS011;4349;47.552;8.904;2022-10-16T07:58:23;5.77;;;5.27;;
8622;SDS011;4349;47.552;8.904;2022-10-16T08:00:52;6.20;;;5.70;;
8622;SDS011;4349;47.552;8.904;2022-10-16T08:03:20;6.73;;;6.10;;
8622;SDS011;4349;47.552;8.904;2022-10-16T08:05:48;6.93;;;6.33;;
8622;SDS011;4349;47.552;8.904;2022-10-16T08:08:16;8.50;;;7.70;;
8622;SDS011;4349;47.552;8.904;2022-10-16T08:10:44;7.93;;;7.30;;
8622;SDS011;4349;47.552;8.904;2022-10-16T08:13:12;7.87;;;6.23;;
8622;SDS011;4349;47.552;8.904;2022-10-16T08:15:41;6.63;;;6.03;;
8622;SDS011;4349;47.552;8.904;2022-10-16T08:18:10;6.73;;;6.00;;
8622;SDS011;4349;47.552;8.904;2022-10-16T08:20:39;6.63;;;6.03;;
8622;SDS011;4349;47.552;8.904;2022-10-16T08:23:06;8.97;;;6.10;;
8622;SDS011;4349;47.552;8.904;2022-10-16T08:25:34;6.60;;;6.03;;
8622;SDS011;4349;47.552;8.904;2022-10-16T08:28:03;11.47;;;9.63;;
8622;SDS011;4349;47.552;8.904;2022-10-16T08:30:30;11.50;;;10.30;;
8622;SDS011;4349;47.552;8.904;2022-10-16T08:32:58;11.07;;;10.00;;
8622;SDS011;4349;47.552;8.904;2022-10-16T08:35:27;13.70;;;11.73;;
8622;SDS011;4349;47.552;8.904;2022-10-16T08:37:55;13.50;;;11.97;;
8622;SDS011;4349;47.552;8.904;2022-10-16T08:40:23;14.13;;;11.20;;
8622;SDS011;4349;47.552;8.904;2022-10-16T08:43:00;9.53;;;8.67;;
8622;SDS011;4349;47.552;8.904;2022-10-16T08:45:34;9.97;;;9.10;;
8622;SDS011;4349;47.552;8.904;2022-10-16T08:48:06;6.90;;;6.40;;
8622;SDS011;4349;47.552;8.904;2022-10-16T08:50:37;7.70;;;7.00;;
8622;SDS011;4349;47.552;8.904;2022-10-16T08:53:06;8.07;;;7.47;;
8622;SDS011;4349;47.552;8.904;2022-10-16T08:55:37;8.10;;;7.40;;
8622;SDS011;4349;47.552;8.904;2022-10-16T08:58:10;7.03;;;6.40;;
8622;SDS011;4349;47.552;8.904;2022-10-16T09:00:39;7.50;;;6.90;;
8622;SDS011;4349;47.552;8.904;2022-10-16T09:03:10;8.27;;;7.33;;
8622;SDS011;4349;47.552;8.904;2022-10-16T09:05:46;7.57;;;7.03;;
8622;SDS011;4349;47.552;8.904;2022-10-16T09:08:19;7.80;;;7.20;;
8622;SDS011;4349;47.552;8.904;2022-10-16T09:10:52;8.17;;;7.37;;
8622;SDS011;4349;47.552;8.904;2022-10-16T09:13:24;7.83;;;7.13;;
8622;SDS011;4349;47.552;8.904;2022-10-16T09:15:55;6.93;;;6.40;;
8622;SDS011;4349;47.552;8.904;2022-10-16T09:18:26;6.53;;;6.00;;
8622;SDS011;4349;47.552;8.904;2022-10-16T09:21:01;9.30;;;6.23;;
8622;SDS011;4349;47.552;8.904;2022-10-16T09:23:33;5.57;;;5.20;;
8622;SDS011;4349;47.552;8.904;2022-10-16T09:26:02;5.63;;;5.13;;
8622;SDS011;4349;47.552;8.904;2022-10-16T09:28:29;4.33;;;4.10;;
8622;SDS011;4349;47.552;8.904;2022-10-16T09:30:57;3.87;;;3.77;;
8622;SDS011;4349;47.552;8.904;2022-10-16T09:33:27;4.30;;;4.10;;
8622;SDS011;4349;47.552;8.904;2022-10-16T09:35:56;4.50;;;4.20;;
8622;SDS011;4349;47.552;8.904;2022-10-16T09:38:28;4.17;;;3.97;;
8622;SDS011;4349;47.552;8.904;2022-10-16T09:40:56;4.33;;;4.10;;
8622;SDS011;4349;47.552;8.904;2022-10-16T09:43:31;6.13;;;5.73;;
8622;SDS011;4349;47.552;8.904;2022-10-16T09:46:00;3.90;;;3.70;;
8622;SDS011;4349;47.552;8.904;2022-10-16T09:48:30;5.73;;;5.33;;
8622;SDS011;4349;47.552;8.904;2022-10-16T09:51:00;4.13;;;3.90;;
8622;SDS011;4349;47.552;8.904;2022-10-16T09:53:40;3.87;;;3.67;;
8622;SDS011;4349;47.552;8.904;2022-10-16T09:56:09;4.10;;;3.80;;
8622;SDS011;4349;47.552;8.904;2022-10-16T09:58:43;4.00;;;3.80;;
8622;SDS011;4349;47.552;8.904;2022-10-16T10:01:12;3.30;;;3.20;;
8622;SDS011;4349;47.552;8.904;2022-10-16T10:03:41;3.77;;;3.47;;
8622;SDS011;4349;47.552;8.904;2022-10-16T10:06:17;4.30;;;4.10;;
8622;SDS011;4349;47.552;8.904;2022-10-16T10:08:57;3.40;;;3.30;;
8622;SDS011;4349;47.552;8.904;2022-10-16T10:11:38;3.97;;;3.73;;
8622;SDS011;4349;47.552;8.904;2022-10-16T10:14:06;3.53;;;3.30;;
8622;SDS011;4349;47.552;8.904;2022-10-16T10:16:36;4.00;;;3.80;;
8622;SDS011;4349;47.552;8.904;2022-10-16T10:19:04;3.30;;;3.20;;
8622;SDS011;4349;47.552;8.904;2022-10-16T10:21:32;3.37;;;3.27;;
8622;SDS011;4349;47.552;8.904;2022-10-16T10:24:02;3.37;;;3.20;;
8622;SDS011;4349;47.552;8.904;2022-10-16T10:26:31;3.57;;;3.27;;
8622;SDS011;4349;47.552;8.904;2022-10-16T10:29:06;3.30;;;3.13;;
8622;SDS011;4349;47.552;8.904;2022-10-16T10:31:42;3.40;;;3.20;;
8622;SDS011;4349;47.552;8.904;2022-10-16T10:34:32;4.40;;;2.90;;
8622;SDS011;4349;47.552;8.904;2022-10-16T10:37:03;2.90;;;2.70;;
8622;SDS011;4349;47.552;8.904;2022-10-16T10:39:34;2.93;;;2.73;;
8622;SDS011;4349;47.552;8.904;2022-10-16T10:42:11;2.50;;;2.40;;
8622;SDS011;4349;47.552;8.904;2022-10-16T10:44:50;2.50;;;2.40;;
8622;SDS011;4349;47.552;8.904;2022-10-16T10:47:21;2.80;;;2.30;;
8622;SDS011;4349;47.552;8.904;2022-10-16T10:49:54;2.20;;;2.10;;
8622;SDS011;4349;47.552;8.904;2022-10-16T10:52:30;4.70;;;2.27;;
8622;SDS011;4349;47.552;8.904;2022-10-16T10:55:06;3.20;;;2.67;;
8622;SDS011;4349;47.552;8.904;2022-10-16T10:57:37;2.23;;;2.13;;
8622;SDS011;4349;47.552;8.904;2022-10-16T11:00:12;1.73;;;1.70;;
8622;SDS011;4349;47.552;8.904;2022-10-16T11:02:45;2.40;;;2.20;;
8622;SDS011;4349;47.552;8.904;2022-10-16T11:05:21;2.33;;;2.23;;
8622;SDS011;4349;47.552;8.904;2022-10-16T11:07:51;2.73;;;2.53;;
8622;SDS011;4349;47.552;8.904;2022-10-16T11:10:22;2.40;;;2.30;;
8622;SDS011;4349;47.552;8.904;2022-10-16T11:12:51;2.50;;;2.30;;
8622;SDS011;4349;47.552;8.904;2022-10-16T11:15:21;2.67;;;2.57;;
8622;SDS011;4349;47.552;8.904;2022-10-16T11:17:51;3.57;;;2.93;;
8622;SDS011;4349;47.552;8.904;2022-10-16T11:20:21;2.97;;;2.70;;
8622;SDS011;4349;47.552;8.904;2022-10-16T11:22:51;2.30;;;2.20;;
8622;SDS011;4349;47.552;8.904;2022-10-16T11:25:22;2.13;;;2.10;;
8622;SDS011;4349;47.552;8.904;2022-10-16T11:27:51;2.30;;;2.20;;
8622;SDS011;4349;47.552;8.904;2022-10-16T11:30:21;3.23;;;2.30;;
8622;SDS011;4349;47.552;8.904;2022-10-16T11:32:54;2.30;;;2.10;;
8622;SDS011;4349;47.552;8.904;2022-10-16T11:35:24;2.07;;;1.57;;
8622;SDS011;4349;47.552;8.904;2022-10-16T11:37:54;1.40;;;1.40;;
8622;SDS011;4349;47.552;8.904;2022-10-16T11:40:25;1.70;;;1.60;;
8622;SDS011;4349;47.552;8.904;2022-10-16T11:42:54;3.37;;;1.63;;
8622;SDS011;4349;47.552;8.904;2022-10-16T11:45:24;2.07;;;1.83;;
8622;SDS011;4349;47.552;8.904;2022-10-16T11:47:57;1.77;;;1.77;;
8622;SDS011;4349;47.552;8.904;2022-10-16T11:50:28;2.37;;;2.20;;
8622;SDS011;4349;47.552;8.904;2022-10-16T11:52:58;2.37;;;2.27;;
8622;SDS011;4349;47.552;8.904;2022-10-16T11:55:30;1.73;;;1.73;;
8622;SDS011;4349;47.552;8.904;2022-10-16T11:58:02;2.17;;;2.10;;
8622;SDS011;4349;47.552;8.904;2022-10-16T12:00:33;1.80;;;1.70;;
8622;SDS011;4349;47.552;8.904;2022-10-16T12:03:03;1.83;;;1.73;;
8622;SDS011;4349;47.552;8.904;2022-10-16T12:05:38;1.80;;;1.70;;
8622;SDS011;4349;47.552;8.904;2022-10-16T12:08:12;2.00;;;1.90;;
8622;SDS011;4349;47.552;8.904;2022-10-16T12:10:43;3.43;;;1.70;;
8622;SDS011;4349;47.552;8.904;2022-10-16T12:13:30;1.77;;;1.67;;
8622;SDS011;4349;47.552;8.904;2022-10-16T12:16:05;2.23;;;1.50;;
8622;SDS011;4349;47.552;8.904;2022-10-16T12:18:32;1.30;;;1.30;;
8622;SDS011;4349;47.552;8.904;2022-10-16T12:21:00;1.80;;;1.80;;
8622;SDS011;4349;47.552;8.904;2022-10-16T12:23:32;1.43;;;1.33;;
8622;SDS011;4349;47.552;8.904;2022-10-16T12:26:01;1.90;;;1.90;;
8622;SDS011;4349;47.552;8.904;2022-10-16T12:28:29;1.50;;;1.50;;
8622;SDS011;4349;47.552;8.904;2022-10-16T12:30:58;1.50;;;1.40;;
8622;SDS011;4349;47.552;8.904;2022-10-16T12:33:26;1.87;;;1.37;;
8622;SDS011;4349;47.552;8.904;2022-10-16T12:35:55;1.63;;;1.63;;
8622;SDS011;4349;47.552;8.904;2022-10-16T12:38:24;2.10;;;2.00;;
8622;SDS011;4349;47.552;8.904;2022-10-16T12:40:56;1.60;;;1.60;;
8622;SDS011;4349;47.552;8.904;2022-10-16T12:43:27;1.57;;;1.47;;
8622;SDS011;4349;47.552;8.904;2022-10-16T12:45:59;1.57;;;1.57;;
8622;SDS011;4349;47.552;8.904;2022-10-16T12:48:27;1.40;;;1.40;;
8622;SDS011;4349;47.552;8.904;2022-10-16T12:51:22;1.30;;;1.30;;
8622;SDS011;4349;47.552;8.904;2022-10-16T12:53:57;1.27;;;1.27;;
8622;SDS011;4349;47.552;8.904;2022-10-16T12:56:27;1.50;;;1.13;;
8622;SDS011;4349;47.552;8.904;2022-10-16T12:59:03;1.47;;;1.47;;
8622;SDS011;4349;47.552;8.904;2022-10-16T13:01:36;1.17;;;1.17;;
8622;SDS011;4349;47.552;8.904;2022-10-16T13:06:53;2.07;;;1.97;;
8622;SDS011;4349;47.552;8.904;2022-10-16T13:09:33;1.30;;;1.30;;
8622;SDS011;4349;47.552;8.904;2022-10-16T13:12:14;1.20;;;1.20;;
8622;SDS011;4349;47.552;8.904;2022-10-16T13:17:34;1.40;;;1.40;;
8622;SDS011;4349;47.552;8.904;2022-10-16T13:20:06;1.53;;;1.27;;
8622;SDS011;4349;47.552;8.904;2022-10-16T13:22:40;1.17;;;1.17;;
8622;SDS011;4349;47.552;8.904;2022-10-16T13:25:13;1.20;;;1.20;;
8622;SDS011;4349;47.552;8.904;2022-10-16T13:27:46;1.23;;;1.23;;
8622;SDS011;4349;47.552;8.904;2022-10-16T13:30:19;1.50;;;1.50;;
8622;SDS011;4349;47.552;8.904;2022-10-16T13:32:53;3.23;;;1.63;;
8622;SDS011;4349;47.552;8.904;2022-10-16T13:35:25;1.70;;;1.60;;
8622;SDS011;4349;47.552;8.904;2022-10-16T13:38:03;3.53;;;3.23;;
8622;SDS011;4349;47.552;8.904;2022-10-16T13:40:30;1.70;;;1.60;;
8622;SDS011;4349;47.552;8.904;2022-10-16T13:43:00;1.53;;;1.43;;
8622;SDS011;4349;47.552;8.904;2022-10-16T13:45:28;1.23;;;1.23;;
8622;SDS011;4349;47.552;8.904;2022-10-16T13:48:04;1.40;;;1.40;;
8622;SDS011;4349;47.552;8.904;2022-10-16T13:50:32;1.37;;;1.37;;
8622;SDS011;4349;47.552;8.904;2022-10-16T13:53:03;3.10;;;1.50;;
8622;SDS011;4349;47.552;8.904;2022-10-16T13:55:31;1.50;;;1.40;;
8622;SDS011;4349;47.552;8.904;2022-10-16T13:58:05;1.70;;;1.60;;
8622;SDS011;4349;47.552;8.904;2022-10-16T14:00:34;1.70;;;1.60;;
8622;SDS011;4349;47.552;8.904;2022-10-16T14:03:12;2.00;;;1.90;;
8622;SDS011;4349;47.552;8.904;2022-10-16T14:05:42;1.90;;;1.80;;
8622;SDS011;4349;47.552;8.904;2022-10-16T14:08:11;1.53;;;1.40;;
8622;SDS011;4349;47.552;8.904;2022-10-16T14:10:39;1.57;;;1.47;;
8622;SDS011;4349;47.552;8.904;2022-10-16T14:13:07;2.90;;;1.63;;
8622;SDS011;4349;47.552;8.904;2022-10-16T14:15:35;1.73;;;1.63;;
8622;SDS011;4349;47.552;8.904;2022-10-16T14:18:04;2.17;;;2.08;;
8622;SDS011;4349;47.552;8.904;2022-10-16T14:20:33;1.80;;;1.70;;
8622;SDS011;4349;47.552;8.904;2022-10-16T14:23:02;1.90;;;1.90;;
8622;SDS011;4349;47.552;8.904;2022-10-16T14:25:31;1.97;;;1.80;;
8622;SDS011;4349;47.552;8.904;2022-10-16T14:28:00;1.83;;;1.73;;
8622;SDS011;4349;47.552;8.904;2022-10-16T14:30:33;1.60;;;1.60;;
8622;SDS011;4349;47.552;8.904;2022-10-16T14:33:01;1.50;;;1.50;;
8622;SDS011;4349;47.552;8.904;2022-10-16T14:35:30;1.80;;;1.70;;
8622;SDS011;4349;47.552;8.904;2022-10-16T14:38:00;1.57;;;1.57;;
8622;SDS011;4349;47.552;8.904;2022-10-16T14:40:29;1.70;;;1.70;;
8622;SDS011;4349;47.552;8.904;2022-10-16T14:42:57;1.60;;;1.60;;
8622;SDS011;4349;47.552;8.904;2022-10-16T14:45:27;1.90;;;1.50;;
8622;SDS011;4349;47.552;8.904;2022-10-16T14:47:57;2.10;;;1.60;;
8622;SDS011;4349;47.552;8.904;2022-10-16T14:50:25;1.60;;;1.60;;
8622;SDS011;4349;47.552;8.904;2022-10-16T14:52:52;1.40;;;1.40;;
8622;SDS011;4349;47.552;8.904;2022-10-16T14:55:21;2.10;;;1.40;;
8622;SDS011;4349;47.552;8.904;2022-10-16T14:57:54;2.90;;;1.50;;
8622;SDS011;4349;47.552;8.904;2022-10-16T15:00:26;1.23;;;1.23;;
8622;SDS011;4349;47.552;8.904;2022-10-16T15:02:53;1.70;;;1.70;;
8622;SDS011;4349;47.552;8.904;2022-10-16T15:05:21;1.30;;;1.30;;
8622;SDS011;4349;47.552;8.904;2022-10-16T15:07:50;1.37;;;1.37;;
8622;SDS011;4349;47.552;8.904;2022-10-16T15:10:23;1.20;;;1.20;;
8622;SDS011;4349;47.552;8.904;2022-10-16T15:12:51;1.37;;;1.37;;
8622;SDS011;4349;47.552;8.904;2022-10-16T15:18:01;1.40;;;1.40;;
8622;SDS011;4349;47.552;8.904;2022-10-16T15:20:30;1.13;;;1.13;;
8622;SDS011;4349;47.552;8.904;2022-10-16T15:23:00;1.13;;;1.13;;
8622;SDS011;4349;47.552;8.904;2022-10-16T15:25:31;1.10;;;1.10;;
8622;SDS011;4349;47.552;8.904;2022-10-16T15:27:59;1.20;;;1.20;;
8622;SDS011;4349;47.552;8.904;2022-10-16T15:30:27;1.30;;;1.30;;
8622;SDS011;4349;47.552;8.904;2022-10-16T15:32:55;1.20;;;1.20;;
8622;SDS011;4349;47.552;8.904;2022-10-16T15:35:23;1.95;;;1.65;;
8622;SDS011;4349;47.552;8.904;2022-10-16T15:37:50;1.73;;;1.65;;
8622;SDS011;4349;47.552;8.904;2022-10-16T15:40:18;1.63;;;1.63;;
8622;SDS011;4349;47.552;8.904;2022-10-16T15:42:47;1.75;;;1.75;;